Latest Weather Observations for Red Rocks Point

IDW60801

Issued at 5:05 pm WST Friday 18 April 2014 (issued every 30 minutes, with the page automatically refreshed every 10 minutes)

About weather observations | Map of weather stations | Latest weather observations for WA | Other Formats
Station Details ID: 011053 Name: RED ROCKS POINT Lat: -32.20 Lon: 127.53 Height: 3.1 m
Data from the previous 72 hours. | See also: Recent months for locations in Western Australia
Date/Time
WST
Temp
°C
App
Temp
°C
Dew
Point
Rel
Hum
%
Delta-T
°C
Wind Press
QNH
hPa
Press
MSL
hPa
Rain
since 9 am
mm
Dir
 
Spd
km/h
Gust
km/h
Spd
kts
Gust
kts
18/05:00pm 19.6 17.4 15.9 79 2.2 SE 22 26 12 14 1022.2 - 0.0
18/04:30pm 19.8 17.6 15.9 78 2.3 SE 22 28 12 15 1022.1 - 0.0
18/04:00pm 20.2 17.9 15.8 76 2.6 SE 22 26 12 14 1022.1 - 0.0
18/03:30pm 20.5 18.7 15.9 75 2.7 SE 20 26 11 14 1022.1 - 0.0
18/03:00pm 20.9 19.1 15.9 73 3.0 SE 20 24 11 13 1022.0 1022.0 0.0
18/02:30pm 21.2 19.4 16.0 72 3.1 SE 20 24 11 13 1022.1 - 0.0
18/02:00pm 21.3 19.5 15.6 70 3.4 SE 19 22 10 12 1022.4 - 0.0
18/01:30pm 21.9 20.4 16.2 70 3.4 SE 19 22 10 12 1022.5 - 0.0
18/01:00pm 22.1 20.8 15.9 68 3.7 SE 17 20 9 11 1022.5 - 0.0
18/12:30pm 22.0 21.1 15.8 68 3.7 SE 15 19 8 10 1022.7 - 0.0
18/12:00pm 21.6 20.3 15.9 70 3.4 SE 17 20 9 11 1023.2 1023.2 0.0
18/11:30am 22.3 21.1 16.1 68 3.7 SE 17 20 9 11 1023.5 - 0.0
18/11:00am 23.0 21.9 16.3 66 4.1 ESE 17 20 9 11 1023.9 - 0.0
18/10:30am 22.5 21.4 16.3 68 3.8 SE 17 20 9 11 1024.3 - 0.0
18/10:00am 21.9 20.7 16.0 69 3.6 SE 17 20 9 11 1024.3 - 0.0
18/09:30am 22.0 20.9 16.3 70 3.4 ESE 17 20 9 11 1024.4 - 0.0
18/09:00am 21.4 19.6 15.5 69 3.5 ESE 19 24 10 13 1024.4 1024.4 0.0
18/08:30am 21.2 19.6 16.0 72 3.1 ESE 19 24 10 13 1024.4 - 0.0
18/08:00am 20.7 18.8 15.7 73 3.0 ESE 20 24 11 13 1024.3 - 0.0
18/07:30am 20.1 18.4 15.7 76 2.6 ESE 19 24 10 13 1024.1 - 0.0
18/07:00am 19.9 18.7 16.0 78 2.3 SE 17 22 9 12 1023.8 - 0.0
18/06:30am 19.3 17.6 15.8 80 2.1 SE 19 20 10 11 1023.6 - 0.0
18/06:00am 19.2 17.5 15.7 80 2.1 SE 19 20 10 11 1023.3 1023.3 0.0
18/05:30am 19.2 16.8 15.5 79 2.2 SE 22 26 12 14 1023.1 - 0.0
18/05:00am 19.4 16.5 16.2 82 1.9 SE 26 30 14 16 1022.8 - 0.0
18/04:30am 19.2 16.1 15.7 80 2.1 SSE 26 30 14 16 1022.7 - 0.0
18/04:00am 19.3 16.0 16.0 81 2.0 SSE 28 32 15 17 1022.5 - 0.0
18/03:30am 19.2 15.8 15.9 81 2.0 SSE 28 32 15 17 1022.3 - 0.0
18/03:00am 19.5 15.9 16.3 82 1.9 SSE 30 33 16 18 1022.1 1022.1 0.0
18/02:30am 19.5 16.3 16.3 82 1.9 SSE 28 32 15 17 1021.8 - 0.0
18/02:00am 19.7 17.0 16.7 83 1.8 SSE 26 30 14 16 1021.9 - 0.0
18/01:30am 19.8 16.8 16.8 83 1.8 SSE 28 32 15 17 1022.1 - 0.0
18/01:00am 19.9 16.5 16.7 82 1.9 SSE 30 35 16 19 1022.2 - 0.0
18/12:30am 19.8 16.0 16.6 82 1.9 SSE 32 35 17 19 1022.0 - 0.0
18/12:00am 19.8 16.1 17.0 84 1.7 S 32 37 17 20 1022.0 1022.0 0.0
 
Date/Time
WST
Temp
°C
App
Temp
°C
Dew
Point
Rel
Hum
%
Delta-T
°C
Wind Press
QNH
hPa
Press
MSL
hPa
Rain
since 9 am
mm
Dir
 
Spd
km/h
Gust
km/h
Spd
kts
Gust
kts
17/11:30pm 19.9 16.6 17.1 84 1.7 S 30 35 16 19 1022.0 - 0.0
17/11:00pm 19.9 16.6 17.1 84 1.7 S 30 35 16 19 1021.8 - 0.0
17/10:30pm 20.1 16.6 17.5 85 1.6 S 32 35 17 19 1021.7 - 0.0
17/10:00pm 20.1 16.7 17.7 86 1.5 S 32 35 17 19 1021.7 - 0.0
17/09:30pm 20.0 16.5 17.4 85 1.6 S 32 41 17 22 1021.7 - 0.0
17/09:00pm 20.2 17.7 17.0 82 1.9 SSW 26 33 14 18 1021.5 1021.5 0.0
17/08:30pm 20.2 19.0 17.6 85 1.6 SSW 20 28 11 15 1021.3 - 0.0
17/08:00pm 20.4 19.7 18.3 88 1.3 SSW 19 24 10 13 1020.9 - 0.0
17/07:30pm 20.4 20.0 18.0 86 1.5 S 17 22 9 12 1020.5 - 0.0
17/07:00pm 20.6 19.4 18.5 88 1.3 S 22 26 12 14 1020.2 - 0.0
17/06:30pm 20.6 19.8 18.5 88 1.3 S 20 26 11 14 1019.4 - 0.0
17/06:00pm 20.7 22.0 18.5 87 1.4 E 9 11 5 6 1018.1 1018.1 0.0
17/05:30pm 20.9 21.8 18.5 86 1.5 E 11 15 6 8 1017.8 - 0.0
17/05:00pm 21.1 22.0 18.5 85 1.6 E 11 15 6 8 1017.7 - 0.0
17/04:30pm 21.5 22.0 18.3 82 2.0 E 13 17 7 9 1017.5 - 0.0
17/04:00pm 22.0 21.8 18.4 80 2.3 E 17 20 9 11 1017.4 - 0.0
17/03:30pm 22.4 22.5 18.4 78 2.5 E 15 20 8 11 1017.4 - 0.0
17/03:00pm 22.7 22.2 18.7 78 2.5 ESE 19 22 10 12 1017.3 1017.3 0.0
17/02:30pm 22.7 23.3 18.5 77 2.6 ESE 13 17 7 9 1017.2 - 0.0
17/02:00pm 24.1 24.2 19.2 74 3.1 E 17 20 9 11 1017.0 - 0.0
17/01:30pm 23.5 23.1 18.8 75 3.0 E 19 28 10 15 1017.1 - 0.0
17/01:00pm 24.4 23.9 18.6 70 3.7 ESE 19 22 10 12 1017.4 - 0.0
17/12:30pm 25.6 24.3 17.3 60 5.2 SE 20 24 11 13 1017.5 - 0.0
17/12:00pm 30.1 26.0 10.1 29 11.3 N 22 41 12 22 1018.2 1018.2 0.0
17/11:30am 29.5 27.3 12.0 34 10.2 N 15 24 8 13 1018.8 - 0.0
17/11:00am 28.1 25.9 12.0 36 9.3 N 15 24 8 13 1019.6 - 0.0
17/10:30am 26.6 24.7 13.0 43 7.9 N 15 24 8 13 1020.0 - 0.0
17/10:00am 26.1 24.6 14.2 48 7.1 N 15 20 8 11 1020.2 - 0.0
17/09:30am 24.8 23.3 14.3 52 6.2 N 15 24 8 13 1020.4 - 0.0
17/09:00am 22.8 22.2 14.6 60 4.8 N 11 17 6 9 1020.4 1020.4 0.0
17/08:30am 20.6 19.7 14.9 70 3.3 N 13 20 7 11 1020.6 - 0.0
17/08:00am 18.4 17.4 15.6 84 1.6 N 15 20 8 11 1020.7 - 0.0
17/07:30am 16.6 15.2 15.6 94 0.6 N 17 22 9 12 1020.6 - 0.0
17/07:00am 15.5 13.8 14.7 95 0.5 N 17 20 9 11 1020.5 - 0.0
17/06:30am 14.6 12.6 14.0 96 0.3 N 17 22 9 12 1020.1 - 0.0
17/06:00am 13.9 11.7 13.3 96 0.3 N 17 22 9 12 1020.0 1020.0 0.0
17/05:30am 13.8 12.7 13.2 96 0.3 N 11 17 6 9 1019.9 - 0.0
17/05:00am 13.3 14.1 12.5 95 0.4 CALM 0 0 0 0 1020.0 - 0.0
17/04:30am 13.5 12.6 12.7 95 0.4 N 9 11 5 6 1019.8 - 0.0
17/04:00am 14.0 12.5 13.2 95 0.4 N 13 15 7 8 1019.8 - 0.0
17/03:30am 14.7 13.5 13.9 95 0.4 N 13 15 7 8 1019.8 - 0.0
17/03:00am 14.3 12.9 13.3 94 0.6 N 13 17 7 9 1019.9 1019.9 0.0
17/02:30am 14.9 13.7 13.9 94 0.6 N 13 17 7 9 1019.8 - 0.0
17/02:00am 15.1 13.5 14.0 93 0.6 N 15 20 8 11 1019.8 - 0.0
17/01:30am 15.1 13.9 14.0 93 0.6 N 13 17 7 9 1019.9 - 0.0
17/01:00am 15.2 14.0 14.1 93 0.6 N 13 17 7 9 1020.2 - 0.0
17/12:30am 14.9 14.0 13.6 92 0.7 N 11 17 6 9 1020.3 - 0.0
17/12:00am 15.0 14.0 13.5 91 0.8 N 11 13 6 7 1020.5 1020.5 0.0
 
Date/Time
WST
Temp
°C
App
Temp
°C
Dew
Point
Rel
Hum
%
Delta-T
°C
Wind Press
QNH
hPa
Press
MSL
hPa
Rain
since 9 am
mm
Dir
 
Spd
km/h
Gust
km/h
Spd
kts
Gust
kts
16/11:30pm 15.6 15.0 13.6 88 1.1 N 9 11 5 6 1020.3 - 0.0
16/11:00pm 17.8 17.6 14.7 82 1.8 NNE 9 19 5 10 1020.6 - 0.0
16/10:30pm 19.4 17.9 16.2 82 1.9 E 19 20 10 11 1020.7 - 0.0
16/10:00pm 19.4 17.8 16.4 83 1.8 E 20 24 11 13 1020.9 - 0.0
16/09:30pm 19.5 17.8 16.3 82 1.9 E 20 24 11 13 1021.0 - 0.0
16/09:00pm 19.5 17.8 16.3 82 1.9 ESE 20 24 11 13 1021.0 1021.0 0.0
16/08:30pm 19.7 17.8 15.8 78 2.3 SE 20 26 11 14 1021.1 - 0.0
16/08:00pm 19.8 17.6 15.9 78 2.3 SSE 22 28 12 15 1020.9 - 0.0
16/07:30pm 19.6 17.4 15.9 79 2.2 SSE 22 26 12 14 1020.8 - 0.0
16/07:00pm 19.6 17.5 16.3 81 2.0 SSE 22 26 12 14 1020.7 - 0.0
16/06:30pm 19.7 17.6 16.3 81 2.0 SSE 22 26 12 14 1020.7 - 0.0
16/06:00pm 19.7 17.6 16.3 81 2.0 S 22 26 12 14 1020.6 1020.6 0.0
16/05:30pm 19.9 18.0 16.7 82 1.9 S 22 26 12 14 1020.5 - 0.0
16/05:00pm 19.9 18.4 16.7 82 1.9 S 20 24 11 13 1020.4 - 0.0
16/04:30pm 20.4 19.5 16.8 80 2.2 S 17 20 9 11 1020.3 - 0.0
16/04:00pm 21.0 20.0 16.6 76 2.7 S 17 20 9 11 1020.2 - 0.0
16/03:30pm 21.3 20.2 16.3 73 3.0 S 17 20 9 11 1020.3 - 0.0
16/03:00pm 21.6 20.9 16.3 72 3.2 S 15 17 8 9 1020.3 1020.3 0.0
16/02:30pm 21.9 20.4 16.4 71 3.3 S 19 20 10 11 1020.2 - 0.0
16/02:00pm 22.5 21.1 16.5 69 3.6 S 19 22 10 12 1020.2 - 0.0
16/01:30pm 22.7 21.2 16.3 67 3.9 S 19 24 10 13 1020.1 - 0.0
16/01:00pm 23.0 21.8 16.1 65 4.2 SSW 17 22 9 12 1020.1 - 0.0
16/12:30pm 22.8 21.0 15.6 64 4.3 SSW 19 26 10 14 1020.3 - 0.0
16/12:00pm 22.6 21.1 16.4 68 3.8 SSW 19 24 10 13 1020.6 1020.6 0.0
16/11:30am 23.1 21.5 16.4 66 4.1 SSW 20 26 11 14 1021.0 - 0.0
16/11:00am 23.4 22.0 16.9 67 4.0 SSW 20 28 11 15 1021.3 - 0.0
16/10:30am 22.8 21.4 17.0 70 3.6 SSW 20 28 11 15 1021.4 - 0.0
16/10:00am 22.6 21.2 17.1 71 3.4 SW 20 28 11 15 1021.4 - 0.0
16/09:30am 22.6 21.8 17.1 71 3.4 WSW 17 24 9 13 1021.4 - 0.0
16/09:00am 22.4 21.7 17.3 73 3.1 WSW 17 24 9 13 1021.3 1021.3 0.0
16/08:30am 21.9 21.5 16.2 70 3.4 WNW 13 20 7 11 1021.1 - 0.0
16/08:00am 20.0 18.2 14.4 70 3.3 NW 17 20 9 11 1021.0 - 0.0
16/07:30am 17.4 15.1 11.7 69 3.1 NW 15 19 8 10 1020.8 - 0.0
16/07:00am 14.9 12.1 10.1 73 2.5 NW 15 19 8 10 1020.5 - 0.0
16/06:30am 12.7 9.8 9.7 82 1.5 NNW 15 20 8 11 1020.2 - 0.0
16/06:00am 11.6 9.0 9.5 87 1.1 NNW 13 17 7 9 1020.2 1020.2 0.0
16/05:30am 11.7 9.6 9.9 89 0.9 NNW 11 15 6 8 1020.1 - 0.0
16/05:00am 11.9 9.9 10.1 89 0.9 NW 11 13 6 7 1020.1 - 0.0
16/04:30am 12.7 11.6 10.8 88 1.0 NW 7 11 4 6 1020.0 - 0.0
16/04:00am 12.8 10.7 11.0 89 0.9 NNW 13 17 7 9 1019.5 - 0.0
16/03:30am 13.0 11.2 10.7 86 1.2 WNW 11 17 6 9 1019.6 - 0.0
16/03:00am 13.9 12.6 11.4 85 1.3 NNW 9 15 5 8 1019.2 1019.2 0.0
16/02:30am 14.0 12.1 11.7 86 1.2 N 13 17 7 9 1019.1 - 0.0
16/02:00am 14.2 12.3 11.7 85 1.3 N 13 19 7 10 1019.0 - 0.0
16/01:30am 14.7 12.0 11.8 83 1.6 N 17 26 9 14 1019.1 - 0.0
16/01:00am 14.9 12.0 12.2 84 1.5 N 19 28 10 15 1019.1 - 0.0
16/12:30am 15.0 12.6 12.5 85 1.4 N 17 24 9 13 1019.4 - 0.0
16/12:00am 15.0 12.6 12.7 86 1.3 N 17 24 9 13 1019.8 1019.8 0.0
 
Date/Time
WST
Temp
°C
App
Temp
°C
Dew
Point
Rel
Hum
%
Delta-T
°C
Wind Press
QNH
hPa
Press
MSL
hPa
Rain
since 9 am
mm
Dir
 
Spd
km/h
Gust
km/h
Spd
kts
Gust
kts
15/11:30pm 14.9 13.2 12.6 86 1.3 N 13 15 7 8 1020.2 - 0.0
15/11:00pm 15.5 14.7 12.8 84 1.5 N 9 11 5 6 1020.5 - 0.0
15/10:30pm 16.1 15.0 13.0 82 1.7 NNE 11 17 6 9 1020.5 - 0.0
15/10:00pm 16.5 14.3 13.2 81 1.8 NNE 17 24 9 13 1020.2 - 0.0
15/09:30pm 16.9 14.3 13.2 79 2.1 NNE 19 24 10 13 1020.5 - 0.0
15/09:00pm 17.0 14.4 13.3 79 2.1 NNE 19 24 10 13 1020.7 1020.7 0.0
15/08:30pm 17.0 15.1 13.1 78 2.2 NNE 15 20 8 11 1020.9 - 0.0
15/08:00pm 17.2 15.7 13.1 77 2.3 NNE 13 19 7 10 1020.8 - 0.0
15/07:30pm 17.3 15.4 13.0 76 2.4 NE 15 20 8 11 1020.4 - 0.0
15/07:00pm 17.7 15.5 13.4 76 2.4 NE 17 20 9 11 1020.2 - 0.0
15/06:30pm 18.0 15.9 13.5 75 2.5 NE 17 20 9 11 1020.2 - 0.0
15/06:00pm 18.7 16.5 14.8 78 2.3 NE 20 26 11 14 1020.2 1020.2 0.0
15/05:30pm 19.7 15.6 16.0 79 2.2 ENE 32 35 17 19 1019.7 - 0.0

Other Formats:

Comma delimited format used in spreadsheet applications
http://www.bom.gov.au/fwo/IDW60801/IDW60801.94644.axf

JavaScript Object Notation format (JSON) in row-major order
http://www.bom.gov.au/fwo/IDW60801/IDW60801.94644.json